sensor_id;sensor_type;location;lat;lon;timestamp;pressure;altitude;pressure_sealevel;temperature;humidity
33496;BME280;19836;55.812;37.560;2022-10-16T00:00:40;100815.00;;;7.66;60.37
33496;BME280;19836;55.812;37.560;2022-10-16T00:03:07;100821.25;;;7.62;60.37
33496;BME280;19836;55.812;37.560;2022-10-16T00:05:39;100815.94;;;7.59;60.58
33496;BME280;19836;55.812;37.560;2022-10-16T00:08:06;100823.91;;;7.62;60.63
33496;BME280;19836;55.812;37.560;2022-10-16T00:10:32;100817.69;;;7.57;60.55
33496;BME280;19836;55.812;37.560;2022-10-16T00:12:58;100823.91;;;7.54;60.56
33496;BME280;19836;55.812;37.560;2022-10-16T00:15:24;100831.03;;;7.49;60.64
33496;BME280;19836;55.812;37.560;2022-10-16T00:17:50;100830.16;;;7.49;60.58
33496;BME280;19836;55.812;37.560;2022-10-16T00:20:16;100835.47;;;7.44;60.92
33496;BME280;19836;55.812;37.560;2022-10-16T00:23:01;100831.03;;;7.43;61.08
33496;BME280;19836;55.812;37.560;2022-10-16T00:25:26;100846.16;;;7.43;61.30
33496;BME280;19836;55.812;37.560;2022-10-16T00:27:52;100841.72;;;7.45;61.43
33496;BME280;19836;55.812;37.560;2022-10-16T00:30:18;100841.72;;;7.45;61.39
33496;BME280;19836;55.812;37.560;2022-10-16T00:32:44;100846.16;;;7.43;61.46
33496;BME280;19836;55.812;37.560;2022-10-16T00:35:11;100840.84;;;7.42;61.38
33496;BME280;19836;55.812;37.560;2022-10-16T00:37:37;100849.72;;;7.39;61.59
33496;BME280;19836;55.812;37.560;2022-10-16T00:40:04;100851.47;;;7.37;61.67
33496;BME280;19836;55.812;37.560;2022-10-16T00:42:32;100849.72;;;7.33;61.63
33496;BME280;19836;55.812;37.560;2022-10-16T00:44:58;100849.72;;;7.32;61.51
33496;BME280;19836;55.812;37.560;2022-10-16T00:47:30;100851.47;;;7.31;61.56
33496;BME280;19836;55.812;37.560;2022-10-16T00:50:28;100851.47;;;7.32;61.94
33496;BME280;19836;55.812;37.560;2022-10-16T00:52:57;100849.72;;;7.30;61.91
33496;BME280;19836;55.812;37.560;2022-10-16T00:55:25;100855.03;;;7.24;62.02
33496;BME280;19836;55.812;37.560;2022-10-16T00:57:52;100850.59;;;7.22;62.31
33496;BME280;19836;55.812;37.560;2022-10-16T01:00:21;100867.47;;;7.19;62.19
33496;BME280;19836;55.812;37.560;2022-10-16T01:02:57;100869.25;;;7.14;62.37
33496;BME280;19836;55.812;37.560;2022-10-16T01:05:30;100867.47;;;7.13;62.48
33496;BME280;19836;55.812;37.560;2022-10-16T01:08:12;100859.47;;;7.10;62.58
33496;BME280;19836;55.812;37.560;2022-10-16T01:10:52;100863.00;;;7.06;62.68
33496;BME280;19836;55.812;37.560;2022-10-16T01:13:38;100865.66;;;7.06;62.62
33496;BME280;19836;55.812;37.560;2022-10-16T01:16:21;100872.78;;;7.04;62.79
33496;BME280;19836;55.812;37.560;2022-10-16T01:18:55;100876.34;;;7.03;63.13
33496;BME280;19836;55.812;37.560;2022-10-16T01:21:36;100873.66;;;7.02;62.71
33496;BME280;19836;55.812;37.560;2022-10-16T01:27:13;100872.75;;;7.01;63.20
33496;BME280;19836;55.812;37.560;2022-10-16T01:35:27;100874.53;;;6.96;63.16
33496;BME280;19836;55.812;37.560;2022-10-16T01:38:40;100877.19;;;6.94;63.18
33496;BME280;19836;55.812;37.560;2022-10-16T01:41:10;100881.66;;;7.00;62.87
33496;BME280;19836;55.812;37.560;2022-10-16T01:43:49;100879.88;;;6.97;62.79
33496;BME280;19836;55.812;37.560;2022-10-16T01:46:20;100878.09;;;6.95;62.41
33496;BME280;19836;55.812;37.560;2022-10-16T01:48:48;100878.94;;;6.91;62.75
33496;BME280;19836;55.812;37.560;2022-10-16T01:51:16;100881.63;;;6.91;62.67
33496;BME280;19836;55.812;37.560;2022-10-16T01:53:48;100878.06;;;6.92;62.63
33496;BME280;19836;55.812;37.560;2022-10-16T01:56:17;100884.28;;;6.85;62.94
33496;BME280;19836;55.812;37.560;2022-10-16T01:58:53;100883.38;;;6.84;63.08
33496;BME280;19836;55.812;37.560;2022-10-16T02:01:23;100878.06;;;6.83;62.89
33496;BME280;19836;55.812;37.560;2022-10-16T02:03:54;100883.38;;;6.83;62.83
33496;BME280;19836;55.812;37.560;2022-10-16T02:06:21;100883.38;;;6.83;62.90
33496;BME280;19836;55.812;37.560;2022-10-16T02:08:49;100878.06;;;6.83;62.82
33496;BME280;19836;55.812;37.560;2022-10-16T02:11:15;100878.06;;;6.83;62.90
33496;BME280;19836;55.812;37.560;2022-10-16T02:13:45;100886.03;;;6.80;62.78
33496;BME280;19836;55.812;37.560;2022-10-16T02:16:13;100881.59;;;6.79;62.82
33496;BME280;19836;55.812;37.560;2022-10-16T02:18:40;100884.25;;;6.82;62.93
33496;BME280;19836;55.812;37.560;2022-10-16T02:21:16;100883.38;;;6.80;63.15
33496;BME280;19836;55.812;37.560;2022-10-16T02:29:26;100878.03;;;6.80;63.18
33496;BME280;19836;55.812;37.560;2022-10-16T02:31:57;100886.91;;;6.76;63.27
33496;BME280;19836;55.812;37.560;2022-10-16T02:34:25;100890.47;;;6.78;63.14
33496;BME280;19836;55.812;37.560;2022-10-16T02:36:52;100897.56;;;6.76;62.89
33496;BME280;19836;55.812;37.560;2022-10-16T02:39:19;100886.88;;;6.70;62.79
33496;BME280;19836;55.812;37.560;2022-10-16T02:41:47;100882.44;;;6.68;63.18
33496;BME280;19836;55.812;37.560;2022-10-16T02:44:13;100893.09;;;6.72;62.98
33496;BME280;19836;55.812;37.560;2022-10-16T02:46:39;100891.31;;;6.71;62.88
33496;BME280;19836;55.812;37.560;2022-10-16T02:49:05;100888.66;;;6.71;63.01
33496;BME280;19836;55.812;37.560;2022-10-16T02:51:31;100890.44;;;6.71;63.24
33496;BME280;19836;55.812;37.560;2022-10-16T02:53:56;100895.75;;;6.72;63.24
33496;BME280;19836;55.812;37.560;2022-10-16T02:56:22;100896.66;;;6.74;63.15
33496;BME280;19836;55.812;37.560;2022-10-16T02:58:50;100902.00;;;6.78;63.10
33496;BME280;19836;55.812;37.560;2022-10-16T03:01:16;100895.81;;;6.78;63.25
33496;BME280;19836;55.812;37.560;2022-10-16T03:03:44;100897.56;;;6.79;63.55
33496;BME280;19836;55.812;37.560;2022-10-16T03:06:10;100900.22;;;6.78;63.47
33496;BME280;19836;55.812;37.560;2022-10-16T03:08:36;100900.22;;;6.78;63.64
33496;BME280;19836;55.812;37.560;2022-10-16T03:11:02;100905.56;;;6.78;63.78
33496;BME280;19836;55.812;37.560;2022-10-16T03:13:28;100902.88;;;6.73;63.70
33496;BME280;19836;55.812;37.560;2022-10-16T03:15:54;100904.66;;;6.77;63.88
33496;BME280;19836;55.812;37.560;2022-10-16T03:18:20;100907.31;;;6.77;63.85
33496;BME280;19836;55.812;37.560;2022-10-16T03:20:46;100909.97;;;6.74;63.78
33496;BME280;19836;55.812;37.560;2022-10-16T03:23:12;100910.88;;;6.76;63.99
33496;BME280;19836;55.812;37.560;2022-10-16T03:25:38;100913.53;;;6.73;63.91
33496;BME280;19836;55.812;37.560;2022-10-16T03:28:04;100916.16;;;6.68;63.96
33496;BME280;19836;55.812;37.560;2022-10-16T03:30:30;100909.06;;;6.63;64.25
33496;BME280;19836;55.812;37.560;2022-10-16T03:32:56;100911.69;;;6.60;64.33
33496;BME280;19836;55.812;37.560;2022-10-16T03:35:23;100917.91;;;6.59;64.18
33496;BME280;19836;55.812;37.560;2022-10-16T03:37:50;100917.03;;;6.60;64.25
33496;BME280;19836;55.812;37.560;2022-10-16T03:40:16;100922.34;;;6.60;63.96
33496;BME280;19836;55.812;37.560;2022-10-16T03:42:43;100922.34;;;6.60;63.96
33496;BME280;19836;55.812;37.560;2022-10-16T03:45:10;100928.53;;;6.56;64.06
33496;BME280;19836;55.812;37.560;2022-10-16T03:47:36;100929.44;;;6.58;63.92
33496;BME280;19836;55.812;37.560;2022-10-16T03:50:04;100923.22;;;6.57;63.94
33496;BME280;19836;55.812;37.560;2022-10-16T03:52:30;100925.00;;;6.56;63.73
33496;BME280;19836;55.812;37.560;2022-10-16T03:54:56;100919.69;;;6.56;63.80
33496;BME280;19836;55.812;37.560;2022-10-16T03:57:23;100923.22;;;6.53;63.81
33496;BME280;19836;55.812;37.560;2022-10-16T03:59:49;100928.53;;;6.54;63.87
33496;BME280;19836;55.812;37.560;2022-10-16T04:02:15;100923.22;;;6.56;63.86
33496;BME280;19836;55.812;37.560;2022-10-16T04:04:41;100930.31;;;6.58;63.78
33496;BME280;19836;55.812;37.560;2022-10-16T04:07:07;100931.22;;;6.62;64.27
33496;BME280;19836;55.812;37.560;2022-10-16T04:09:33;100926.75;;;6.55;64.25
33496;BME280;19836;55.812;37.560;2022-10-16T04:12:02;100920.50;;;6.48;64.47
33496;BME280;19836;55.812;37.560;2022-10-16T04:14:28;100917.84;;;6.44;64.59
33496;BME280;19836;55.812;37.560;2022-10-16T04:16:54;100917.78;;;6.39;64.52
33496;BME280;19836;55.812;37.560;2022-10-16T04:19:20;100917.75;;;6.32;64.78
33496;BME280;19836;55.812;37.560;2022-10-16T04:21:45;100923.97;;;6.28;64.87
33496;BME280;19836;55.812;37.560;2022-10-16T04:24:11;100922.16;;;6.27;65.33
33496;BME280;19836;55.812;37.560;2022-10-16T04:26:37;100924.81;;;6.24;65.08
33496;BME280;19836;55.812;37.560;2022-10-16T04:29:03;100925.72;;;6.23;65.21
33496;BME280;19836;55.812;37.560;2022-10-16T04:31:29;100933.72;;;6.28;65.41
33496;BME280;19836;55.812;37.560;2022-10-16T04:33:55;100925.75;;;6.29;65.43
33496;BME280;19836;55.812;37.560;2022-10-16T04:36:21;100926.59;;;6.29;65.22
33496;BME280;19836;55.812;37.560;2022-10-16T04:38:47;100930.22;;;6.33;65.53
33496;BME280;19836;55.812;37.560;2022-10-16T04:41:13;100935.53;;;6.33;65.39
33496;BME280;19836;55.812;37.560;2022-10-16T04:43:39;100935.50;;;6.34;65.21
33496;BME280;19836;55.812;37.560;2022-10-16T04:46:05;100931.97;;;6.37;65.23
33496;BME280;19836;55.812;37.560;2022-10-16T04:48:31;100935.56;;;6.39;65.10
33496;BME280;19836;55.812;37.560;2022-10-16T04:50:57;100940.03;;;6.43;65.52
33496;BME280;19836;55.812;37.560;2022-10-16T04:53:23;100937.38;;;6.47;65.22
33496;BME280;19836;55.812;37.560;2022-10-16T04:55:49;100937.38;;;6.49;65.08
33496;BME280;19836;55.812;37.560;2022-10-16T04:58:17;100938.28;;;6.51;65.16
33496;BME280;19836;55.812;37.560;2022-10-16T05:00:44;100940.06;;;6.51;65.13
33496;BME280;19836;55.812;37.560;2022-10-16T05:03:13;100947.16;;;6.54;65.62
33496;BME280;19836;55.812;37.560;2022-10-16T05:05:45;100936.53;;;6.56;65.45
33496;BME280;19836;55.812;37.560;2022-10-16T05:08:13;100948.94;;;6.54;65.29
33496;BME280;19836;55.812;37.560;2022-10-16T05:10:41;100945.41;;;6.55;65.51
33496;BME280;19836;55.812;37.560;2022-10-16T05:13:09;100948.94;;;6.57;65.33
33496;BME280;19836;55.812;37.560;2022-10-16T05:15:35;100946.28;;;6.57;65.25
33496;BME280;19836;55.812;37.560;2022-10-16T05:18:02;100950.72;;;6.59;65.27
33496;BME280;19836;55.812;37.560;2022-10-16T05:20:28;100949.88;;;6.59;65.09
33496;BME280;19836;55.812;37.560;2022-10-16T05:22:55;100947.22;;;6.61;64.69
33496;BME280;19836;55.812;37.560;2022-10-16T05:25:21;100956.06;;;6.61;64.65
33496;BME280;19836;55.812;37.560;2022-10-16T05:27:49;100958.75;;;6.64;64.49
33496;BME280;19836;55.812;37.560;2022-10-16T05:30:16;100955.19;;;6.59;64.44
33496;BME280;19836;55.812;37.560;2022-10-16T05:32:50;100949.88;;;6.59;64.25
33496;BME280;19836;55.812;37.560;2022-10-16T05:35:19;100958.72;;;6.59;64.26
33496;BME280;19836;55.812;37.560;2022-10-16T05:37:49;100956.09;;;6.63;64.41
33496;BME280;19836;55.812;37.560;2022-10-16T05:40:16;100955.19;;;6.62;64.38
33496;BME280;19836;55.812;37.560;2022-10-16T05:46:23;100956.97;;;6.64;64.00
33496;BME280;19836;55.812;37.560;2022-10-16T05:49:00;100967.63;;;6.66;64.07
33496;BME280;19836;55.812;37.560;2022-10-16T05:51:54;100968.56;;;6.72;64.27
33496;BME280;19836;55.812;37.560;2022-10-16T05:54:27;100962.34;;;6.69;64.56
33496;BME280;19836;55.812;37.560;2022-10-16T05:57:15;100968.56;;;6.77;63.84
33496;BME280;19836;55.812;37.560;2022-10-16T06:00:41;100968.63;;;6.83;63.95
33496;BME280;19836;55.812;37.560;2022-10-16T06:03:07;100970.41;;;6.84;63.67
33496;BME280;19836;55.812;37.560;2022-10-16T06:05:34;100972.19;;;6.85;63.66
33496;BME280;19836;55.812;37.560;2022-10-16T06:08:00;100967.75;;;6.90;63.86
33496;BME280;19836;55.812;37.560;2022-10-16T06:13:56;100975.78;;;6.99;63.39
33496;BME280;19836;55.812;37.560;2022-10-16T06:16:41;100974.91;;;7.02;63.45
33496;BME280;19836;55.812;37.560;2022-10-16T06:19:09;100972.25;;;7.03;63.04
33496;BME280;19836;55.812;37.560;2022-10-16T06:21:42;100972.25;;;7.06;63.08
33496;BME280;19836;55.812;37.560;2022-10-16T06:24:11;100974.06;;;7.10;63.05
33496;BME280;19836;55.812;37.560;2022-10-16T06:26:38;100971.38;;;7.14;63.06
33496;BME280;19836;55.812;37.560;2022-10-16T06:29:04;100974.06;;;7.16;62.84
33496;BME280;19836;55.812;37.560;2022-10-16T06:31:31;100974.06;;;7.22;62.77
33496;BME280;19836;55.812;37.560;2022-10-16T06:33:59;100976.75;;;7.25;62.91
33496;BME280;19836;55.812;37.560;2022-10-16T06:36:29;100974.09;;;7.31;62.97
33496;BME280;19836;55.812;37.560;2022-10-16T06:38:55;100975.91;;;7.35;62.71
33496;BME280;19836;55.812;37.560;2022-10-16T06:41:22;100983.91;;;7.39;62.44
33496;BME280;19836;55.812;37.560;2022-10-16T06:43:49;100974.13;;;7.40;62.35
33496;BME280;19836;55.812;37.560;2022-10-16T06:46:17;100983.94;;;7.46;62.38
33496;BME280;19836;55.812;37.560;2022-10-16T06:48:44;100987.50;;;7.53;62.05
33496;BME280;19836;55.812;37.560;2022-10-16T06:51:13;100979.50;;;7.67;62.04
33496;BME280;19836;55.812;37.560;2022-10-16T06:53:47;100983.94;;;7.75;61.70
33496;BME280;19836;55.812;37.560;2022-10-16T06:56:21;100983.97;;;7.89;61.69
33496;BME280;19836;55.812;37.560;2022-10-16T06:58:48;100984.88;;;8.00;61.45
33496;BME280;19836;55.812;37.560;2022-10-16T07:01:15;100975.06;;;8.09;61.19
33496;BME280;19836;55.812;37.560;2022-10-16T07:03:42;100991.13;;;8.22;60.82
33496;BME280;19836;55.812;37.560;2022-10-16T07:06:11;100983.97;;;8.31;60.86
33496;BME280;19836;55.812;37.560;2022-10-16T07:08:38;100991.09;;;8.40;60.25
33496;BME280;19836;55.812;37.560;2022-10-16T07:11:10;100981.28;;;8.46;60.01
33496;BME280;19836;55.812;37.560;2022-10-16T07:13:37;100987.50;;;8.51;60.20
33496;BME280;19836;55.812;37.560;2022-10-16T07:16:15;100984.84;;;8.54;60.07
33496;BME280;19836;55.812;37.560;2022-10-16T07:18:42;100978.59;;;8.61;59.77
33496;BME280;19836;55.812;37.560;2022-10-16T07:21:16;100983.00;;;8.71;59.69
33496;BME280;19836;55.812;37.560;2022-10-16T07:23:42;100985.66;;;8.79;59.19
33496;BME280;19836;55.812;37.560;2022-10-16T07:26:09;100982.97;;;8.86;59.05
33496;BME280;19836;55.812;37.560;2022-10-16T07:28:36;100980.25;;;8.91;59.12
33496;BME280;19836;55.812;37.560;2022-10-16T07:31:03;100984.72;;;8.96;58.67
33496;BME280;19836;55.812;37.560;2022-10-16T07:33:30;100983.78;;;9.03;58.60
33496;BME280;19836;55.812;37.560;2022-10-16T07:36:03;100983.75;;;9.11;58.34
33496;BME280;19836;55.812;37.560;2022-10-16T07:38:29;100984.59;;;9.17;58.44
33496;BME280;19836;55.812;37.560;2022-10-16T07:40:57;100995.25;;;9.25;58.10
33496;BME280;19836;55.812;37.560;2022-10-16T07:43:23;100982.72;;;9.37;58.38
33496;BME280;19836;55.812;37.560;2022-10-16T07:45:50;100988.94;;;9.47;58.40
33496;BME280;19836;55.812;37.560;2022-10-16T07:48:17;100996.91;;;9.53;58.10
33496;BME280;19836;55.812;37.560;2022-10-16T07:50:44;100982.59;;;9.58;57.40
33496;BME280;19836;55.812;37.560;2022-10-16T07:53:10;100985.25;;;9.63;57.21
33496;BME280;19836;55.812;37.560;2022-10-16T07:55:37;100985.19;;;9.69;56.94
33496;BME280;19836;55.812;37.560;2022-10-16T07:58:03;100993.19;;;9.73;57.01
33496;BME280;19836;55.812;37.560;2022-10-16T08:00:30;100983.31;;;9.83;56.85
33496;BME280;19836;55.812;37.560;2022-10-16T08:02:57;100991.25;;;9.93;56.46
33496;BME280;19836;55.812;37.560;2022-10-16T08:05:29;100993.91;;;9.99;56.14
33496;BME280;19836;55.812;37.560;2022-10-16T08:07:56;100993.91;;;9.99;55.97
33496;BME280;19836;55.812;37.560;2022-10-16T08:10:25;100996.56;;;10.05;55.68
33496;BME280;19836;55.812;37.560;2022-10-16T08:12:52;100991.06;;;10.22;55.84
33496;BME280;19836;55.812;37.560;2022-10-16T08:15:18;100985.59;;;10.32;55.12
33496;BME280;19836;55.812;37.560;2022-10-16T08:17:44;100985.53;;;10.38;54.80
33496;BME280;19836;55.812;37.560;2022-10-16T08:20:11;100982.00;;;10.33;54.46
33496;BME280;19836;55.812;37.560;2022-10-16T08:22:37;100975.81;;;10.30;54.09
33496;BME280;19836;55.812;37.560;2022-10-16T08:25:03;100981.09;;;10.34;54.50
33496;BME280;19836;55.812;37.560;2022-10-16T08:27:33;100981.00;;;10.46;54.67
33496;BME280;19836;55.812;37.560;2022-10-16T08:29:59;100982.75;;;10.50;53.63
33496;BME280;19836;55.812;37.560;2022-10-16T08:32:25;100982.69;;;10.53;53.17
33496;BME280;19836;55.812;37.560;2022-10-16T08:34:51;100988.91;;;10.60;53.79
33496;BME280;19836;55.812;37.560;2022-10-16T08:37:16;100972.72;;;10.70;53.31
33496;BME280;19836;55.812;37.560;2022-10-16T08:39:43;100984.22;;;10.77;53.70
33496;BME280;19836;55.812;37.560;2022-10-16T08:50:30;100972.28;;;11.06;52.33
33496;BME280;19836;55.812;37.560;2022-10-16T08:52:58;100976.63;;;11.13;52.68
33496;BME280;19836;55.812;37.560;2022-10-16T08:55:46;100973.88;;;11.19;52.34
33496;BME280;19836;55.812;37.560;2022-10-16T08:58:18;100969.31;;;11.26;52.87
33496;BME280;19836;55.812;37.560;2022-10-16T09:00:47;100971.81;;;11.39;52.26
33496;BME280;19836;55.812;37.560;2022-10-16T09:06:16;100975.69;;;11.81;51.24
33496;BME280;19836;55.812;37.560;2022-10-16T09:11:44;100969.47;;;12.80;49.13
33496;BME280;19836;55.812;37.560;2022-10-16T09:22:40;100957.75;;;15.02;45.19
33496;BME280;19836;55.812;37.560;2022-10-16T09:25:15;100952.97;;;15.42;nan
33496;BME280;19836;55.812;37.560;2022-10-16T09:27:47;100946.41;;;16.05;43.20
33496;BME280;19836;55.812;37.560;2022-10-16T09:30:16;100945.09;;;16.69;41.31
33496;BME280;19836;55.812;37.560;2022-10-16T09:32:44;100941.38;;;17.66;39.57
33496;BME280;19836;55.812;37.560;2022-10-16T09:35:19;100944.06;;;19.12;37.85
33496;BME280;19836;55.812;37.560;2022-10-16T09:37:48;100935.50;;;20.83;36.11
33496;BME280;19836;55.812;37.560;2022-10-16T09:45:28;100929.88;;;23.75;30.73
33496;BME280;19836;55.812;37.560;2022-10-16T09:47:54;100924.47;;;24.93;29.95
33496;BME280;19836;55.812;37.560;2022-10-16T09:50:26;100920.34;;;26.11;28.18
33496;BME280;19836;55.812;37.560;2022-10-16T09:53:12;100928.28;;;26.27;26.54
33496;BME280;19836;55.812;37.560;2022-10-16T09:55:50;100916.69;;;26.34;26.16
33496;BME280;19836;55.812;37.560;2022-10-16T09:58:16;100915.56;;;27.18;25.53
33496;BME280;19836;55.812;37.560;2022-10-16T10:00:49;100925.94;;;27.15;23.84
33496;BME280;19836;55.812;37.560;2022-10-16T10:03:40;100917.06;;;26.88;23.65
33496;BME280;19836;55.812;37.560;2022-10-16T10:06:35;100915.91;;;26.68;23.38
33496;BME280;19836;55.812;37.560;2022-10-16T10:11:57;100910.41;;;26.21;23.88
33496;BME280;19836;55.812;37.560;2022-10-16T10:14:24;100909.16;;;26.25;23.18
33496;BME280;19836;55.812;37.560;2022-10-16T10:17:01;100909.78;;;26.65;23.01
33496;BME280;19836;55.812;37.560;2022-10-16T10:19:27;100909.41;;;26.46;22.61
33496;BME280;19836;55.812;37.560;2022-10-16T10:21:53;100914.41;;;26.75;22.64
33496;BME280;19836;55.812;37.560;2022-10-16T10:24:19;100907.50;;;25.99;22.46
33496;BME280;19836;55.812;37.560;2022-10-16T10:27:08;100916.41;;;26.50;22.72
33496;BME280;19836;55.812;37.560;2022-10-16T10:37:37;100909.38;;;24.08;23.74
33496;BME280;19836;55.812;37.560;2022-10-16T10:40:30;100916.59;;;22.83;24.95
33496;BME280;19836;55.812;37.560;2022-10-16T10:43:17;100910.63;;;22.02;25.95
33496;BME280;19836;55.812;37.560;2022-10-16T10:45:48;100921.88;;;20.66;27.28
33496;BME280;19836;55.812;37.560;2022-10-16T10:50:56;100909.66;;;18.33;30.05
33496;BME280;19836;55.812;37.560;2022-10-16T10:56:31;100893.53;;;17.65;31.46
33496;BME280;19836;55.812;37.560;2022-10-16T11:02:00;100901.50;;;18.93;31.68
33496;BME280;19836;55.812;37.560;2022-10-16T11:07:23;100901.47;;;21.24;29.31
33496;BME280;19836;55.812;37.560;2022-10-16T11:09:58;100895.38;;;20.53;28.94
33496;BME280;19836;55.812;37.560;2022-10-16T11:12:38;100905.78;;;18.98;30.26
33496;BME280;19836;55.812;37.560;2022-10-16T11:17:42;100910.72;;;16.72;33.32
33496;BME280;19836;55.812;37.560;2022-10-16T11:20:17;100909.63;;;16.76;33.93
33496;BME280;19836;55.812;37.560;2022-10-16T11:22:53;100905.00;;;16.80;34.24
33496;BME280;19836;55.812;37.560;2022-10-16T11:28:03;100900.13;;;17.35;34.04
33496;BME280;19836;55.812;37.560;2022-10-16T11:33:27;100903.31;;;17.23;34.12
33496;BME280;19836;55.812;37.560;2022-10-16T11:36:12;100882.56;;;17.68;34.07
33496;BME280;19836;55.812;37.560;2022-10-16T11:44:06;100885.41;;;16.23;35.75
33496;BME280;19836;55.812;37.560;2022-10-16T11:46:37;100897.72;;;16.05;35.79
33496;BME280;19836;55.812;37.560;2022-10-16T11:49:15;100890.13;;;15.90;36.56
33496;BME280;19836;55.812;37.560;2022-10-16T11:57:22;100887.84;;;15.78;37.43
33496;BME280;19836;55.812;37.560;2022-10-16T11:59:54;100890.78;;;17.21;36.49
33496;BME280;19836;55.812;37.560;2022-10-16T12:02:30;100882.56;;;19.30;33.97
33496;BME280;19836;55.812;37.560;2022-10-16T12:08:30;100876.94;;;22.17;29.87
33496;BME280;19836;55.812;37.560;2022-10-16T12:10:33;100881.94;;;22.25;28.63
33496;BME280;19836;55.812;37.560;2022-10-16T12:16:24;100879.41;;;20.62;29.65
33496;BME280;19836;55.812;37.560;2022-10-16T12:19:08;100875.84;;;19.38;30.54
33496;BME280;19836;55.812;37.560;2022-10-16T12:21:35;100873.91;;;18.83;31.85
33496;BME280;19836;55.812;37.560;2022-10-16T12:24:03;100866.47;;;18.48;32.24
33496;BME280;19836;55.812;37.560;2022-10-16T12:26:37;100866.94;;;18.16;32.89
33496;BME280;19836;55.812;37.560;2022-10-16T12:31:44;100874.34;;;16.79;34.39
33496;BME280;19836;55.812;37.560;2022-10-16T12:36:47;100863.22;;;16.87;34.95
33496;BME280;19836;55.812;37.560;2022-10-16T12:39:24;100862.75;;;16.76;35.25
33496;BME280;19836;55.812;37.560;2022-10-16T12:42:19;100862.88;;;16.96;35.35
33496;BME280;19836;55.812;37.560;2022-10-16T12:44:46;100857.91;;;16.61;35.13
33496;BME280;19836;55.812;37.560;2022-10-16T12:49:58;100866.19;;;16.06;35.96
33496;BME280;19836;55.812;37.560;2022-10-16T12:52:36;100855.44;;;15.78;36.65
33496;BME280;19836;55.812;37.560;2022-10-16T12:55:04;100858.63;;;15.89;36.84
33496;BME280;19836;55.812;37.560;2022-10-16T13:03:39;100855.63;;;16.73;36.51
33496;BME280;19836;55.812;37.560;2022-10-16T13:12:58;100854.56;;;17.00;35.54
33496;BME280;19836;55.812;37.560;2022-10-16T13:15:19;100863.97;;;16.17;36.08
33496;BME280;19836;55.812;37.560;2022-10-16T13:17:54;100856.13;;;15.57;37.05
33496;BME280;19836;55.812;37.560;2022-10-16T13:20:36;100862.69;;;15.21;37.79
33496;BME280;19836;55.812;37.560;2022-10-16T13:23:16;100878.31;;;14.81;38.58
33496;BME280;19836;55.812;37.560;2022-10-16T13:28:45;100876.22;;;14.28;39.46
33496;BME280;19836;55.812;37.560;2022-10-16T13:31:20;100869.59;;;14.06;39.95
33496;BME280;19836;55.812;37.560;2022-10-16T13:33:51;100859.25;;;13.90;40.42
33496;BME280;19836;55.812;37.560;2022-10-16T13:36:21;100864.75;;;13.85;40.93
33496;BME280;19836;55.812;37.560;2022-10-16T13:38:48;100861.34;;;13.79;41.02
33496;BME280;19836;55.812;37.560;2022-10-16T13:41:17;100874.00;;;13.75;40.92
33496;BME280;19836;55.812;37.560;2022-10-16T13:43:49;100873.22;;;13.70;41.32
33496;BME280;19836;55.812;37.560;2022-10-16T13:46:18;100861.78;;;13.61;41.67
33496;BME280;19836;55.812;37.560;2022-10-16T13:48:55;100864.81;;;13.49;41.55
33496;BME280;19836;55.812;37.560;2022-10-16T13:51:21;100858.66;;;13.42;42.07
33496;BME280;19836;55.812;37.560;2022-10-16T13:53:51;100860.50;;;13.40;42.26
33496;BME280;19836;55.812;37.560;2022-10-16T13:56:19;100861.59;;;13.32;42.50
33496;BME280;19836;55.812;37.560;2022-10-16T14:01:29;100858.41;;;13.16;42.47
33496;BME280;19836;55.812;37.560;2022-10-16T14:04:02;100861.97;;;13.17;42.79
33496;BME280;19836;55.812;37.560;2022-10-16T14:06:30;100861.19;;;13.12;43.16
33496;BME280;19836;55.812;37.560;2022-10-16T14:11:46;100864.91;;;13.06;43.54
33496;BME280;19836;55.812;37.560;2022-10-16T14:14:14;100860.53;;;13.01;43.27
33496;BME280;19836;55.812;37.560;2022-10-16T14:16:42;100868.72;;;12.96;43.56
33496;BME280;19836;55.812;37.560;2022-10-16T14:19:26;100869.72;;;12.89;43.88
33496;BME280;19836;55.812;37.560;2022-10-16T14:21:53;100865.44;;;12.79;43.80
33496;BME280;19836;55.812;37.560;2022-10-16T14:24:40;100862.84;;;12.76;43.99
33496;BME280;19836;55.812;37.560;2022-10-16T14:27:27;100857.63;;;12.69;44.31
33496;BME280;19836;55.812;37.560;2022-10-16T14:30:23;100864.00;;;12.63;44.75
33496;BME280;19836;55.812;37.560;2022-10-16T14:32:58;100856.06;;;12.59;44.76
33496;BME280;19836;55.812;37.560;2022-10-16T14:35:25;100867.88;;;12.50;44.71
33496;BME280;19836;55.812;37.560;2022-10-16T14:37:54;100867.00;;;12.48;45.12
33496;BME280;19836;55.812;37.560;2022-10-16T14:40:23;100866.16;;;12.46;45.17
33496;BME280;19836;55.812;37.560;2022-10-16T14:42:49;100868.03;;;12.43;45.24
33496;BME280;19836;55.812;37.560;2022-10-16T14:45:19;100871.66;;;12.40;45.57
33496;BME280;19836;55.812;37.560;2022-10-16T14:47:50;100862.72;;;12.38;45.81
33496;BME280;19836;55.812;37.560;2022-10-16T14:50:17;100861.00;;;12.34;45.74
33496;BME280;19836;55.812;37.560;2022-10-16T14:52:43;100863.78;;;12.31;45.86
33496;BME280;19836;55.812;37.560;2022-10-16T14:55:09;100862.06;;;12.26;46.02
33496;BME280;19836;55.812;37.560;2022-10-16T14:57:38;100869.44;;;12.16;46.24
33496;BME280;19836;55.812;37.560;2022-10-16T15:00:33;100873.22;;;12.06;46.41
33496;BME280;19836;55.812;37.560;2022-10-16T15:03:00;100867.00;;;12.03;46.79
33496;BME280;19836;55.812;37.560;2022-10-16T15:05:28;100872.34;;;12.04;46.74
33496;BME280;19836;55.812;37.560;2022-10-16T15:07:55;100867.06;;;12.00;47.08